sensor_id;sensor_type;location;lat;lon;timestamp;temperature;humidity
2465;DHT22;1244;54.326;10.074;2022-08-19T00:00:12;19.00;99.90
2465;DHT22;1244;54.326;10.074;2022-08-19T00:02:39;19.00;99.90
2465;DHT22;1244;54.326;10.074;2022-08-19T00:05:06;19.00;99.90
2465;DHT22;1244;54.326;10.074;2022-08-19T00:07:31;19.10;99.90
2465;DHT22;1244;54.326;10.074;2022-08-19T00:09:57;19.00;99.90
2465;DHT22;1244;54.326;10.074;2022-08-19T00:12:23;18.90;99.90
2465;DHT22;1244;54.326;10.074;2022-08-19T00:14:48;19.00;99.90
2465;DHT22;1244;54.326;10.074;2022-08-19T00:17:14;19.00;99.90
2465;DHT22;1244;54.326;10.074;2022-08-19T00:19:39;19.00;99.90
2465;DHT22;1244;54.326;10.074;2022-08-19T00:22:06;19.00;99.90
2465;DHT22;1244;54.326;10.074;2022-08-19T00:24:33;19.00;99.90
2465;DHT22;1244;54.326;10.074;2022-08-19T00:26:59;19.00;99.90
2465;DHT22;1244;54.326;10.074;2022-08-19T00:29:27;19.00;99.90
2465;DHT22;1244;54.326;10.074;2022-08-19T00:31:53;19.00;99.90
2465;DHT22;1244;54.326;10.074;2022-08-19T00:34:21;19.00;99.90
2465;DHT22;1244;54.326;10.074;2022-08-19T00:36:47;19.00;99.90
2465;DHT22;1244;54.326;10.074;2022-08-19T00:39:14;19.00;99.90
2465;DHT22;1244;54.326;10.074;2022-08-19T00:41:42;19.00;99.90
2465;DHT22;1244;54.326;10.074;2022-08-19T00:44:12;18.90;99.90
2465;DHT22;1244;54.326;10.074;2022-08-19T00:46:41;18.90;99.90
2465;DHT22;1244;54.326;10.074;2022-08-19T00:49:13;18.90;99.90
2465;DHT22;1244;54.326;10.074;2022-08-19T00:51:41;18.90;99.90
2465;DHT22;1244;54.326;10.074;2022-08-19T00:54:08;19.00;99.90
2465;DHT22;1244;54.326;10.074;2022-08-19T00:56:35;19.00;99.90
2465;DHT22;1244;54.326;10.074;2022-08-19T00:59:02;19.00;99.90
2465;DHT22;1244;54.326;10.074;2022-08-19T01:01:28;18.90;99.90
2465;DHT22;1244;54.326;10.074;2022-08-19T01:03:54;18.90;99.90
2465;DHT22;1244;54.326;10.074;2022-08-19T01:06:20;18.80;99.90
2465;DHT22;1244;54.326;10.074;2022-08-19T01:08:45;18.90;99.90
2465;DHT22;1244;54.326;10.074;2022-08-19T01:11:11;18.80;99.90
2465;DHT22;1244;54.326;10.074;2022-08-19T01:13:37;18.90;99.90
2465;DHT22;1244;54.326;10.074;2022-08-19T01:16:07;18.80;99.90
2465;DHT22;1244;54.326;10.074;2022-08-19T01:18:38;18.80;99.90
2465;DHT22;1244;54.326;10.074;2022-08-19T01:21:09;19.00;99.90
2465;DHT22;1244;54.326;10.074;2022-08-19T01:23:36;18.90;99.90
2465;DHT22;1244;54.326;10.074;2022-08-19T01:26:28;18.90;99.90
2465;DHT22;1244;54.326;10.074;2022-08-19T01:28:56;18.80;99.90
2465;DHT22;1244;54.326;10.074;2022-08-19T01:31:25;18.70;99.90
2465;DHT22;1244;54.326;10.074;2022-08-19T01:33:52;18.70;99.90
2465;DHT22;1244;54.326;10.074;2022-08-19T01:36:26;18.70;99.90
2465;DHT22;1244;54.326;10.074;2022-08-19T01:38:52;18.80;99.90
2465;DHT22;1244;54.326;10.074;2022-08-19T01:41:18;18.70;99.90
2465;DHT22;1244;54.326;10.074;2022-08-19T01:43:45;18.70;99.90
2465;DHT22;1244;54.326;10.074;2022-08-19T01:46:10;18.80;99.90
2465;DHT22;1244;54.326;10.074;2022-08-19T01:48:39;18.70;99.90
2465;DHT22;1244;54.326;10.074;2022-08-19T01:51:07;18.70;99.90
2465;DHT22;1244;54.326;10.074;2022-08-19T01:53:33;18.70;99.90
2465;DHT22;1244;54.326;10.074;2022-08-19T01:55:59;18.70;99.90
2465;DHT22;1244;54.326;10.074;2022-08-19T01:58:29;18.60;99.90
2465;DHT22;1244;54.326;10.074;2022-08-19T02:00:56;18.70;99.90
2465;DHT22;1244;54.326;10.074;2022-08-19T02:03:22;18.60;99.90
2465;DHT22;1244;54.326;10.074;2022-08-19T02:05:54;18.50;99.90
2465;DHT22;1244;54.326;10.074;2022-08-19T02:08:20;18.60;99.90
2465;DHT22;1244;54.326;10.074;2022-08-19T02:10:45;18.50;99.90
2465;DHT22;1244;54.326;10.074;2022-08-19T02:13:12;18.60;99.90
2465;DHT22;1244;54.326;10.074;2022-08-19T02:15:38;18.60;99.90
2465;DHT22;1244;54.326;10.074;2022-08-19T02:18:04;18.60;99.90
2465;DHT22;1244;54.326;10.074;2022-08-19T02:20:30;18.60;99.90
2465;DHT22;1244;54.326;10.074;2022-08-19T02:22:56;18.60;99.90
2465;DHT22;1244;54.326;10.074;2022-08-19T02:25:21;18.70;99.90
2465;DHT22;1244;54.326;10.074;2022-08-19T02:27:47;18.60;99.90
2465;DHT22;1244;54.326;10.074;2022-08-19T02:30:15;18.70;99.90
2465;DHT22;1244;54.326;10.074;2022-08-19T02:32:41;18.70;99.90
2465;DHT22;1244;54.326;10.074;2022-08-19T02:35:08;18.60;99.90
2465;DHT22;1244;54.326;10.074;2022-08-19T02:37:34;18.60;99.90
2465;DHT22;1244;54.326;10.074;2022-08-19T02:40:19;18.70;99.90
2465;DHT22;1244;54.326;10.074;2022-08-19T02:42:44;18.60;99.90
2465;DHT22;1244;54.326;10.074;2022-08-19T02:45:11;18.60;99.90
2465;DHT22;1244;54.326;10.074;2022-08-19T02:47:37;18.60;99.90
2465;DHT22;1244;54.326;10.074;2022-08-19T02:50:04;18.50;99.90
2465;DHT22;1244;54.326;10.074;2022-08-19T02:52:31;18.50;99.90
2465;DHT22;1244;54.326;10.074;2022-08-19T02:54:57;18.50;99.90
2465;DHT22;1244;54.326;10.074;2022-08-19T02:57:23;18.50;99.90
2465;DHT22;1244;54.326;10.074;2022-08-19T02:59:49;18.50;99.90
2465;DHT22;1244;54.326;10.074;2022-08-19T03:02:15;18.40;99.90
2465;DHT22;1244;54.326;10.074;2022-08-19T03:04:40;18.50;99.90
2465;DHT22;1244;54.326;10.074;2022-08-19T03:07:07;18.50;99.90
2465;DHT22;1244;54.326;10.074;2022-08-19T03:09:36;18.60;99.90
2465;DHT22;1244;54.326;10.074;2022-08-19T03:12:03;18.50;99.90
2465;DHT22;1244;54.326;10.074;2022-08-19T03:14:32;18.50;99.90
2465;DHT22;1244;54.326;10.074;2022-08-19T03:16:58;18.60;99.90
2465;DHT22;1244;54.326;10.074;2022-08-19T03:19:24;18.50;99.90
2465;DHT22;1244;54.326;10.074;2022-08-19T03:21:50;18.50;99.90
2465;DHT22;1244;54.326;10.074;2022-08-19T03:24:16;18.40;99.90
2465;DHT22;1244;54.326;10.074;2022-08-19T03:26:45;18.40;99.90
2465;DHT22;1244;54.326;10.074;2022-08-19T03:29:11;18.40;99.90
2465;DHT22;1244;54.326;10.074;2022-08-19T03:31:38;18.40;99.90
2465;DHT22;1244;54.326;10.074;2022-08-19T03:34:04;18.50;99.90
2465;DHT22;1244;54.326;10.074;2022-08-19T03:36:29;18.50;99.90
2465;DHT22;1244;54.326;10.074;2022-08-19T03:39:00;18.50;99.90
2465;DHT22;1244;54.326;10.074;2022-08-19T03:41:38;18.50;99.90
2465;DHT22;1244;54.326;10.074;2022-08-19T03:44:03;18.50;99.90
2465;DHT22;1244;54.326;10.074;2022-08-19T03:46:32;18.60;99.90
2465;DHT22;1244;54.326;10.074;2022-08-19T03:49:01;18.60;99.90
2465;DHT22;1244;54.326;10.074;2022-08-19T03:51:32;18.60;99.90
2465;DHT22;1244;54.326;10.074;2022-08-19T03:54:00;18.60;99.90
2465;DHT22;1244;54.326;10.074;2022-08-19T03:56:27;18.50;99.90
2465;DHT22;1244;54.326;10.074;2022-08-19T03:58:56;18.50;99.90
2465;DHT22;1244;54.326;10.074;2022-08-19T04:01:25;18.60;99.90
2465;DHT22;1244;54.326;10.074;2022-08-19T04:03:57;18.60;99.90
2465;DHT22;1244;54.326;10.074;2022-08-19T04:06:26;18.50;99.90
2465;DHT22;1244;54.326;10.074;2022-08-19T04:08:53;18.50;99.90
2465;DHT22;1244;54.326;10.074;2022-08-19T04:11:23;18.50;99.90
2465;DHT22;1244;54.326;10.074;2022-08-19T04:13:50;18.40;99.90
2465;DHT22;1244;54.326;10.074;2022-08-19T04:16:20;18.40;99.90
2465;DHT22;1244;54.326;10.074;2022-08-19T04:18:47;18.40;99.90
2465;DHT22;1244;54.326;10.074;2022-08-19T04:21:21;18.50;99.90
2465;DHT22;1244;54.326;10.074;2022-08-19T04:23:47;18.50;99.90
2465;DHT22;1244;54.326;10.074;2022-08-19T04:26:14;18.50;99.90
2465;DHT22;1244;54.326;10.074;2022-08-19T04:28:41;18.40;99.90
2465;DHT22;1244;54.326;10.074;2022-08-19T04:31:13;18.40;99.90
2465;DHT22;1244;54.326;10.074;2022-08-19T04:33:39;18.30;99.90
2465;DHT22;1244;54.326;10.074;2022-08-19T04:36:05;18.30;99.90
2465;DHT22;1244;54.326;10.074;2022-08-19T04:38:30;18.40;99.90
2465;DHT22;1244;54.326;10.074;2022-08-19T04:40:56;18.40;99.90
2465;DHT22;1244;54.326;10.074;2022-08-19T04:43:40;18.50;99.90
2465;DHT22;1244;54.326;10.074;2022-08-19T04:46:12;18.50;99.90
2465;DHT22;1244;54.326;10.074;2022-08-19T04:48:38;18.60;99.90
2465;DHT22;1244;54.326;10.074;2022-08-19T04:51:09;18.60;99.90
2465;DHT22;1244;54.326;10.074;2022-08-19T04:53:37;18.60;99.90
2465;DHT22;1244;54.326;10.074;2022-08-19T04:56:12;18.50;99.90
2465;DHT22;1244;54.326;10.074;2022-08-19T04:58:40;18.60;99.90
2465;DHT22;1244;54.326;10.074;2022-08-19T05:01:12;18.60;99.90
2465;DHT22;1244;54.326;10.074;2022-08-19T05:03:38;18.60;99.90
2465;DHT22;1244;54.326;10.074;2022-08-19T05:06:10;18.60;99.90
2465;DHT22;1244;54.326;10.074;2022-08-19T05:08:38;18.50;99.90
2465;DHT22;1244;54.326;10.074;2022-08-19T05:11:11;18.60;99.90
2465;DHT22;1244;54.326;10.074;2022-08-19T05:13:37;18.60;99.90
2465;DHT22;1244;54.326;10.074;2022-08-19T05:16:03;18.70;99.90
2465;DHT22;1244;54.326;10.074;2022-08-19T05:18:29;18.70;99.90
2465;DHT22;1244;54.326;10.074;2022-08-19T05:21:16;18.70;99.90
2465;DHT22;1244;54.326;10.074;2022-08-19T05:24:00;18.60;99.90
2465;DHT22;1244;54.326;10.074;2022-08-19T05:26:27;18.60;99.90
2465;DHT22;1244;54.326;10.074;2022-08-19T05:28:53;18.60;99.90
2465;DHT22;1244;54.326;10.074;2022-08-19T05:31:19;18.50;99.90
2465;DHT22;1244;54.326;10.074;2022-08-19T05:33:45;18.50;99.90
2465;DHT22;1244;54.326;10.074;2022-08-19T05:36:11;18.50;99.90
2465;DHT22;1244;54.326;10.074;2022-08-19T05:38:37;18.50;99.90
2465;DHT22;1244;54.326;10.074;2022-08-19T05:41:10;18.50;99.90
2465;DHT22;1244;54.326;10.074;2022-08-19T05:43:36;18.60;99.90
2465;DHT22;1244;54.326;10.074;2022-08-19T05:46:02;18.50;99.90
2465;DHT22;1244;54.326;10.074;2022-08-19T05:48:29;18.50;99.90
2465;DHT22;1244;54.326;10.074;2022-08-19T05:50:55;18.50;99.90
2465;DHT22;1244;54.326;10.074;2022-08-19T05:53:22;18.60;99.90
2465;DHT22;1244;54.326;10.074;2022-08-19T05:55:47;18.50;99.90
2465;DHT22;1244;54.326;10.074;2022-08-19T05:58:13;18.60;99.90
2465;DHT22;1244;54.326;10.074;2022-08-19T06:00:38;18.70;99.90
2465;DHT22;1244;54.326;10.074;2022-08-19T06:03:05;18.70;99.90
2465;DHT22;1244;54.326;10.074;2022-08-19T06:05:31;18.60;99.90
2465;DHT22;1244;54.326;10.074;2022-08-19T06:07:57;18.70;99.90
2465;DHT22;1244;54.326;10.074;2022-08-19T06:10:24;18.70;99.90
2465;DHT22;1244;54.326;10.074;2022-08-19T06:12:51;18.70;99.90
2465;DHT22;1244;54.326;10.074;2022-08-19T06:15:17;18.80;99.90
2465;DHT22;1244;54.326;10.074;2022-08-19T06:17:43;18.80;99.90
2465;DHT22;1244;54.326;10.074;2022-08-19T06:20:12;18.80;99.90
2465;DHT22;1244;54.326;10.074;2022-08-19T06:22:43;18.90;99.90
2465;DHT22;1244;54.326;10.074;2022-08-19T06:25:10;18.90;99.90
2465;DHT22;1244;54.326;10.074;2022-08-19T06:27:36;18.90;99.90
2465;DHT22;1244;54.326;10.074;2022-08-19T06:30:04;18.80;99.90
2465;DHT22;1244;54.326;10.074;2022-08-19T06:32:29;18.80;99.90
2465;DHT22;1244;54.326;10.074;2022-08-19T06:34:55;18.90;99.90
2465;DHT22;1244;54.326;10.074;2022-08-19T06:37:21;18.90;99.90
2465;DHT22;1244;54.326;10.074;2022-08-19T06:39:47;18.90;99.90
2465;DHT22;1244;54.326;10.074;2022-08-19T06:42:14;18.90;99.90
2465;DHT22;1244;54.326;10.074;2022-08-19T06:44:46;18.90;99.90
2465;DHT22;1244;54.326;10.074;2022-08-19T06:47:14;18.90;99.90
2465;DHT22;1244;54.326;10.074;2022-08-19T06:49:41;18.90;99.90
2465;DHT22;1244;54.326;10.074;2022-08-19T06:52:07;19.00;99.90
2465;DHT22;1244;54.326;10.074;2022-08-19T06:54:33;19.00;99.90
2465;DHT22;1244;54.326;10.074;2022-08-19T06:56:59;19.00;99.90
2465;DHT22;1244;54.326;10.074;2022-08-19T06:59:28;19.10;99.90
2465;DHT22;1244;54.326;10.074;2022-08-19T07:01:59;19.10;99.90
2465;DHT22;1244;54.326;10.074;2022-08-19T07:04:28;19.10;99.90
2465;DHT22;1244;54.326;10.074;2022-08-19T07:07:16;19.10;99.90
2465;DHT22;1244;54.326;10.074;2022-08-19T07:09:43;19.20;99.90
2465;DHT22;1244;54.326;10.074;2022-08-19T07:12:11;19.20;99.90
2465;DHT22;1244;54.326;10.074;2022-08-19T07:14:38;19.30;99.90
2465;DHT22;1244;54.326;10.074;2022-08-19T07:17:07;19.30;99.90
2465;DHT22;1244;54.326;10.074;2022-08-19T07:19:33;19.30;99.90
2465;DHT22;1244;54.326;10.074;2022-08-19T07:22:02;19.30;99.90
2465;DHT22;1244;54.326;10.074;2022-08-19T07:24:28;19.30;99.90
2465;DHT22;1244;54.326;10.074;2022-08-19T07:26:57;19.30;99.90
2465;DHT22;1244;54.326;10.074;2022-08-19T07:29:28;19.30;99.90
2465;DHT22;1244;54.326;10.074;2022-08-19T07:31:55;19.30;99.90
2465;DHT22;1244;54.326;10.074;2022-08-19T07:34:23;19.30;99.90
2465;DHT22;1244;54.326;10.074;2022-08-19T07:36:49;19.30;99.90
2465;DHT22;1244;54.326;10.074;2022-08-19T07:39:25;19.30;99.90
2465;DHT22;1244;54.326;10.074;2022-08-19T07:41:50;19.30;99.90
2465;DHT22;1244;54.326;10.074;2022-08-19T07:44:16;19.20;99.90
2465;DHT22;1244;54.326;10.074;2022-08-19T07:46:45;19.20;99.90
2465;DHT22;1244;54.326;10.074;2022-08-19T07:49:11;19.20;99.90
2465;DHT22;1244;54.326;10.074;2022-08-19T07:51:50;19.10;99.90
2465;DHT22;1244;54.326;10.074;2022-08-19T07:54:18;19.10;99.90
2465;DHT22;1244;54.326;10.074;2022-08-19T07:56:44;19.10;99.90
2465;DHT22;1244;54.326;10.074;2022-08-19T07:59:09;19.00;99.90
2465;DHT22;1244;54.326;10.074;2022-08-19T08:01:36;18.90;99.90
2465;DHT22;1244;54.326;10.074;2022-08-19T08:04:01;18.90;99.90
2465;DHT22;1244;54.326;10.074;2022-08-19T08:06:46;18.90;99.90
2465;DHT22;1244;54.326;10.074;2022-08-19T08:09:36;19.00;99.90
2465;DHT22;1244;54.326;10.074;2022-08-19T08:12:15;19.10;99.90
2465;DHT22;1244;54.326;10.074;2022-08-19T08:14:51;19.10;99.90
2465;DHT22;1244;54.326;10.074;2022-08-19T08:17:19;19.10;99.90
2465;DHT22;1244;54.326;10.074;2022-08-19T08:19:45;19.10;99.90
2465;DHT22;1244;54.326;10.074;2022-08-19T08:22:14;19.10;99.90
2465;DHT22;1244;54.326;10.074;2022-08-19T08:25:03;19.10;99.90
2465;DHT22;1244;54.326;10.074;2022-08-19T08:27:29;19.10;99.90
2465;DHT22;1244;54.326;10.074;2022-08-19T08:29:56;19.20;99.90
2465;DHT22;1244;54.326;10.074;2022-08-19T08:32:22;19.20;99.90
2465;DHT22;1244;54.326;10.074;2022-08-19T08:34:48;19.30;99.90
2465;DHT22;1244;54.326;10.074;2022-08-19T08:37:14;19.30;99.90
2465;DHT22;1244;54.326;10.074;2022-08-19T08:39:39;19.40;99.90
2465;DHT22;1244;54.326;10.074;2022-08-19T08:42:27;19.50;99.90
2465;DHT22;1244;54.326;10.074;2022-08-19T08:45:12;19.50;99.90
2465;DHT22;1244;54.326;10.074;2022-08-19T08:47:43;19.50;99.90
2465;DHT22;1244;54.326;10.074;2022-08-19T08:50:21;19.50;99.90
2465;DHT22;1244;54.326;10.074;2022-08-19T08:52:52;19.60;99.90
2465;DHT22;1244;54.326;10.074;2022-08-19T08:55:25;19.60;99.90
2465;DHT22;1244;54.326;10.074;2022-08-19T08:58:07;19.70;99.90
2465;DHT22;1244;54.326;10.074;2022-08-19T09:00:40;19.70;99.90
2465;DHT22;1244;54.326;10.074;2022-08-19T09:03:21;19.70;99.90
2465;DHT22;1244;54.326;10.074;2022-08-19T09:05:59;19.70;99.90
2465;DHT22;1244;54.326;10.074;2022-08-19T09:08:42;19.80;99.90
2465;DHT22;1244;54.326;10.074;2022-08-19T09:11:19;19.80;99.90
2465;DHT22;1244;54.326;10.074;2022-08-19T09:16:21;19.70;99.90
2465;DHT22;1244;54.326;10.074;2022-08-19T09:18:51;19.60;99.90
2465;DHT22;1244;54.326;10.074;2022-08-19T09:21:19;19.50;99.90
2465;DHT22;1244;54.326;10.074;2022-08-19T09:23:45;19.50;99.90
2465;DHT22;1244;54.326;10.074;2022-08-19T09:26:13;19.50;99.90
2465;DHT22;1244;54.326;10.074;2022-08-19T09:28:41;19.60;99.90
2465;DHT22;1244;54.326;10.074;2022-08-19T09:31:14;19.60;99.90
2465;DHT22;1244;54.326;10.074;2022-08-19T09:33:40;19.60;99.90
2465;DHT22;1244;54.326;10.074;2022-08-19T09:36:11;19.60;99.90
2465;DHT22;1244;54.326;10.074;2022-08-19T09:38:37;19.60;99.90
2465;DHT22;1244;54.326;10.074;2022-08-19T09:41:07;19.60;99.90
2465;DHT22;1244;54.326;10.074;2022-08-19T09:43:34;19.60;99.90
2465;DHT22;1244;54.326;10.074;2022-08-19T09:46:03;19.60;99.90
2465;DHT22;1244;54.326;10.074;2022-08-19T09:48:30;19.50;99.90
2465;DHT22;1244;54.326;10.074;2022-08-19T09:51:03;19.50;99.90
2465;DHT22;1244;54.326;10.074;2022-08-19T09:53:29;19.50;99.90
2465;DHT22;1244;54.326;10.074;2022-08-19T09:55:57;19.30;99.90
2465;DHT22;1244;54.326;10.074;2022-08-19T09:58:22;19.40;99.90
2465;DHT22;1244;54.326;10.074;2022-08-19T10:00:56;19.30;99.90
2465;DHT22;1244;54.326;10.074;2022-08-19T10:03:23;19.30;99.90
2465;DHT22;1244;54.326;10.074;2022-08-19T10:05:49;19.40;99.90
2465;DHT22;1244;54.326;10.074;2022-08-19T10:08:27;19.30;99.90
2465;DHT22;1244;54.326;10.074;2022-08-19T10:10:54;19.30;99.90
2465;DHT22;1244;54.326;10.074;2022-08-19T10:13:23;19.40;99.90
2465;DHT22;1244;54.326;10.074;2022-08-19T10:15:52;19.50;99.90
2465;DHT22;1244;54.326;10.074;2022-08-19T10:18:19;19.50;99.90
2465;DHT22;1244;54.326;10.074;2022-08-19T10:20:47;19.60;99.90
2465;DHT22;1244;54.326;10.074;2022-08-19T10:23:13;19.60;99.90
2465;DHT22;1244;54.326;10.074;2022-08-19T10:25:40;19.60;99.90
2465;DHT22;1244;54.326;10.074;2022-08-19T10:28:06;19.60;99.90
2465;DHT22;1244;54.326;10.074;2022-08-19T10:30:32;19.60;99.90
2465;DHT22;1244;54.326;10.074;2022-08-19T10:32:58;19.70;99.90
2465;DHT22;1244;54.326;10.074;2022-08-19T10:35:23;19.70;99.90
2465;DHT22;1244;54.326;10.074;2022-08-19T10:37:53;19.80;99.90
2465;DHT22;1244;54.326;10.074;2022-08-19T10:40:19;19.90;99.90
2465;DHT22;1244;54.326;10.074;2022-08-19T10:42:44;19.90;99.90
2465;DHT22;1244;54.326;10.074;2022-08-19T10:45:10;20.00;99.90
2465;DHT22;1244;54.326;10.074;2022-08-19T10:47:36;20.10;99.90
2465;DHT22;1244;54.326;10.074;2022-08-19T10:50:03;20.10;99.90
2465;DHT22;1244;54.326;10.074;2022-08-19T10:52:49;20.30;99.90
2465;DHT22;1244;54.326;10.074;2022-08-19T10:55:15;20.20;99.90
2465;DHT22;1244;54.326;10.074;2022-08-19T10:58:00;20.20;99.90
2465;DHT22;1244;54.326;10.074;2022-08-19T11:00:25;20.20;99.90
2465;DHT22;1244;54.326;10.074;2022-08-19T11:02:52;20.20;99.90
2465;DHT22;1244;54.326;10.074;2022-08-19T11:05:18;20.30;99.90
2465;DHT22;1244;54.326;10.074;2022-08-19T11:07:44;20.30;99.90
2465;DHT22;1244;54.326;10.074;2022-08-19T11:10:12;20.30;99.90
2465;DHT22;1244;54.326;10.074;2022-08-19T11:12:39;20.30;99.90
2465;DHT22;1244;54.326;10.074;2022-08-19T11:15:07;20.50;99.90
2465;DHT22;1244;54.326;10.074;2022-08-19T11:17:34;20.70;99.90
2465;DHT22;1244;54.326;10.074;2022-08-19T11:19:59;20.70;99.90
2465;DHT22;1244;54.326;10.074;2022-08-19T11:22:28;20.70;99.90
2465;DHT22;1244;54.326;10.074;2022-08-19T11:24:54;20.60;99.90
2465;DHT22;1244;54.326;10.074;2022-08-19T11:27:20;20.60;99.90
2465;DHT22;1244;54.326;10.074;2022-08-19T11:29:46;20.60;99.90
2465;DHT22;1244;54.326;10.074;2022-08-19T11:32:12;20.70;99.90
2465;DHT22;1244;54.326;10.074;2022-08-19T11:34:39;20.80;99.90
2465;DHT22;1244;54.326;10.074;2022-08-19T11:37:06;20.90;99.90
2465;DHT22;1244;54.326;10.074;2022-08-19T11:39:32;21.00;99.90
2465;DHT22;1244;54.326;10.074;2022-08-19T11:41:59;20.80;99.90
2465;DHT22;1244;54.326;10.074;2022-08-19T11:44:26;20.80;99.90
2465;DHT22;1244;54.326;10.074;2022-08-19T11:46:52;20.60;99.90
2465;DHT22;1244;54.326;10.074;2022-08-19T11:49:19;20.60;99.90
2465;DHT22;1244;54.326;10.074;2022-08-19T11:51:46;20.60;99.90
2465;DHT22;1244;54.326;10.074;2022-08-19T11:54:13;20.50;99.90
2465;DHT22;1244;54.326;10.074;2022-08-19T11:56:40;20.30;99.90
2465;DHT22;1244;54.326;10.074;2022-08-19T11:59:05;20.20;99.90
2465;DHT22;1244;54.326;10.074;2022-08-19T12:01:33;20.20;99.90
2465;DHT22;1244;54.326;10.074;2022-08-19T12:03:58;20.20;99.90
2465;DHT22;1244;54.326;10.074;2022-08-19T12:06:28;20.20;99.90
2465;DHT22;1244;54.326;10.074;2022-08-19T12:08:59;20.10;99.90
2465;DHT22;1244;54.326;10.074;2022-08-19T12:11:25;20.20;99.90
2465;DHT22;1244;54.326;10.074;2022-08-19T12:13:51;20.20;99.90
2465;DHT22;1244;54.326;10.074;2022-08-19T12:16:21;20.10;99.90
2465;DHT22;1244;54.326;10.074;2022-08-19T12:18:47;19.90;99.90
2465;DHT22;1244;54.326;10.074;2022-08-19T12:21:14;19.90;99.90
2465;DHT22;1244;54.326;10.074;2022-08-19T12:23:41;20.00;99.90
2465;DHT22;1244;54.326;10.074;2022-08-19T12:26:09;20.00;99.90
2465;DHT22;1244;54.326;10.074;2022-08-19T12:28:35;20.10;99.90
2465;DHT22;1244;54.326;10.074;2022-08-19T12:31:01;20.20;99.90
2465;DHT22;1244;54.326;10.074;2022-08-19T12:33:26;20.10;99.90
2465;DHT22;1244;54.326;10.074;2022-08-19T12:35:53;20.20;99.90
2465;DHT22;1244;54.326;10.074;2022-08-19T12:38:19;20.20;99.90
2465;DHT22;1244;54.326;10.074;2022-08-19T12:40:46;20.30;99.90
2465;DHT22;1244;54.326;10.074;2022-08-19T12:43:13;20.20;99.90
2465;DHT22;1244;54.326;10.074;2022-08-19T12:45:39;20.40;99.90
2465;DHT22;1244;54.326;10.074;2022-08-19T12:48:04;20.40;99.90
2465;DHT22;1244;54.326;10.074;2022-08-19T12:50:30;20.50;99.90
2465;DHT22;1244;54.326;10.074;2022-08-19T12:52:57;20.60;99.90
2465;DHT22;1244;54.326;10.074;2022-08-19T12:55:22;20.80;99.90
2465;DHT22;1244;54.326;10.074;2022-08-19T12:57:48;20.80;99.90
2465;DHT22;1244;54.326;10.074;2022-08-19T13:00:19;20.80;99.90
2465;DHT22;1244;54.326;10.074;2022-08-19T13:02:48;20.80;99.90
2465;DHT22;1244;54.326;10.074;2022-08-19T13:05:18;20.90;99.90
2465;DHT22;1244;54.326;10.074;2022-08-19T13:07:47;21.00;99.90
2465;DHT22;1244;54.326;10.074;2022-08-19T13:10:16;21.00;99.90
2465;DHT22;1244;54.326;10.074;2022-08-19T13:12:44;21.10;99.90
2465;DHT22;1244;54.326;10.074;2022-08-19T13:15:11;21.20;99.90
2465;DHT22;1244;54.326;10.074;2022-08-19T13:17:38;21.20;99.90
2465;DHT22;1244;54.326;10.074;2022-08-19T13:20:04;21.20;99.90
2465;DHT22;1244;54.326;10.074;2022-08-19T13:22:32;21.30;99.90
2465;DHT22;1244;54.326;10.074;2022-08-19T13:24:58;21.30;99.90
2465;DHT22;1244;54.326;10.074;2022-08-19T13:27:23;21.40;99.90
2465;DHT22;1244;54.326;10.074;2022-08-19T13:29:49;21.40;99.90
2465;DHT22;1244;54.326;10.074;2022-08-19T13:32:33;21.30;99.90
2465;DHT22;1244;54.326;10.074;2022-08-19T13:35:18;21.20;99.90
2465;DHT22;1244;54.326;10.074;2022-08-19T13:37:44;21.10;99.90
2465;DHT22;1244;54.326;10.074;2022-08-19T13:40:18;21.20;99.90
2465;DHT22;1244;54.326;10.074;2022-08-19T13:42:50;21.20;99.90
2465;DHT22;1244;54.326;10.074;2022-08-19T13:45:19;21.40;99.90
2465;DHT22;1244;54.326;10.074;2022-08-19T13:47:46;21.40;99.90
2465;DHT22;1244;54.326;10.074;2022-08-19T13:50:14;21.30;99.90
2465;DHT22;1244;54.326;10.074;2022-08-19T13:52:40;21.20;99.90
2465;DHT22;1244;54.326;10.074;2022-08-19T13:55:07;21.10;99.90
2465;DHT22;1244;54.326;10.074;2022-08-19T13:57:33;21.00;99.90
2465;DHT22;1244;54.326;10.074;2022-08-19T13:59:58;20.90;99.90
2465;DHT22;1244;54.326;10.074;2022-08-19T14:02:25;20.90;99.90
2465;DHT22;1244;54.326;10.074;2022-08-19T14:04:51;20.90;99.90
2465;DHT22;1244;54.326;10.074;2022-08-19T14:07:17;20.80;99.90
2465;DHT22;1244;54.326;10.074;2022-08-19T14:09:42;20.70;99.90
2465;DHT22;1244;54.326;10.074;2022-08-19T14:12:08;20.80;99.90
2465;DHT22;1244;54.326;10.074;2022-08-19T14:14:38;20.80;99.90
2465;DHT22;1244;54.326;10.074;2022-08-19T14:17:07;20.90;99.90
2465;DHT22;1244;54.326;10.074;2022-08-19T14:19:33;20.90;99.90
2465;DHT22;1244;54.326;10.074;2022-08-19T14:21:58;21.00;99.90
2465;DHT22;1244;54.326;10.074;2022-08-19T14:24:24;21.10;99.90
2465;DHT22;1244;54.326;10.074;2022-08-19T14:26:50;20.80;99.90
2465;DHT22;1244;54.326;10.074;2022-08-19T14:29:15;20.80;99.90
2465;DHT22;1244;54.326;10.074;2022-08-19T14:31:41;20.90;99.90
2465;DHT22;1244;54.326;10.074;2022-08-19T14:34:08;21.00;99.90
2465;DHT22;1244;54.326;10.074;2022-08-19T14:36:35;21.20;99.90
2465;DHT22;1244;54.326;10.074;2022-08-19T14:39:00;21.40;99.90
2465;DHT22;1244;54.326;10.074;2022-08-19T14:41:26;21.50;99.90
2465;DHT22;1244;54.326;10.074;2022-08-19T14:43:53;21.60;99.90
2465;DHT22;1244;54.326;10.074;2022-08-19T14:46:21;21.60;99.90
2465;DHT22;1244;54.326;10.074;2022-08-19T14:48:48;21.60;99.90
2465;DHT22;1244;54.326;10.074;2022-08-19T14:51:14;21.70;99.90
2465;DHT22;1244;54.326;10.074;2022-08-19T14:53:41;21.80;99.90
2465;DHT22;1244;54.326;10.074;2022-08-19T14:56:09;21.80;99.90
2465;DHT22;1244;54.326;10.074;2022-08-19T14:58:36;21.90;99.90
2465;DHT22;1244;54.326;10.074;2022-08-19T15:01:02;21.80;99.90
2465;DHT22;1244;54.326;10.074;2022-08-19T15:03:29;21.70;99.90
2465;DHT22;1244;54.326;10.074;2022-08-19T15:05:55;21.50;99.90
2465;DHT22;1244;54.326;10.074;2022-08-19T15:08:22;21.50;99.90
2465;DHT22;1244;54.326;10.074;2022-08-19T15:10:50;21.50;99.90
2465;DHT22;1244;54.326;10.074;2022-08-19T15:13:16;21.40;99.90
2465;DHT22;1244;54.326;10.074;2022-08-19T15:15:41;21.60;99.90
2465;DHT22;1244;54.326;10.074;2022-08-19T15:18:07;21.60;99.90
2465;DHT22;1244;54.326;10.074;2022-08-19T15:20:32;21.50;99.90
2465;DHT22;1244;54.326;10.074;2022-08-19T15:22:58;21.60;99.90
2465;DHT22;1244;54.326;10.074;2022-08-19T15:25:27;21.60;99.90
2465;DHT22;1244;54.326;10.074;2022-08-19T15:27:52;21.70;99.90
2465;DHT22;1244;54.326;10.074;2022-08-19T15:30:21;21.60;99.90
2465;DHT22;1244;54.326;10.074;2022-08-19T15:32:47;21.70;99.90
2465;DHT22;1244;54.326;10.074;2022-08-19T15:35:13;21.70;99.90
2465;DHT22;1244;54.326;10.074;2022-08-19T15:37:39;21.60;99.90
2465;DHT22;1244;54.326;10.074;2022-08-19T15:40:06;21.60;99.90
2465;DHT22;1244;54.326;10.074;2022-08-19T15:42:35;21.60;99.90
2465;DHT22;1244;54.326;10.074;2022-08-19T15:45:02;21.60;99.90
2465;DHT22;1244;54.326;10.074;2022-08-19T15:47:28;21.50;99.90
2465;DHT22;1244;54.326;10.074;2022-08-19T15:49:54;21.40;99.90
2465;DHT22;1244;54.326;10.074;2022-08-19T15:52:20;21.40;99.90